sensor_id;sensor_type;location;lat;lon;timestamp;temperature;humidity
20946;DHT22;10632;51.276;7.116;2023-02-14T00:00:04;7.30;99.90
20946;DHT22;10632;51.276;7.116;2023-02-14T00:02:31;7.30;99.90
20946;DHT22;10632;51.276;7.116;2023-02-14T00:04:58;7.30;99.90
20946;DHT22;10632;51.276;7.116;2023-02-14T00:07:25;7.20;99.90
20946;DHT22;10632;51.276;7.116;2023-02-14T00:09:52;7.30;99.90
20946;DHT22;10632;51.276;7.116;2023-02-14T00:12:20;7.20;99.90
20946;DHT22;10632;51.276;7.116;2023-02-14T00:14:47;7.20;99.90
20946;DHT22;10632;51.276;7.116;2023-02-14T00:17:31;7.20;99.90
20946;DHT22;10632;51.276;7.116;2023-02-14T00:19:58;7.10;99.90
20946;DHT22;10632;51.276;7.116;2023-02-14T00:22:28;7.20;99.90
20946;DHT22;10632;51.276;7.116;2023-02-14T00:24:54;7.10;99.90
20946;DHT22;10632;51.276;7.116;2023-02-14T00:27:23;7.10;99.90
20946;DHT22;10632;51.276;7.116;2023-02-14T00:29:50;7.10;99.90
20946;DHT22;10632;51.276;7.116;2023-02-14T00:32:19;7.00;99.90
20946;DHT22;10632;51.276;7.116;2023-02-14T00:34:46;7.00;99.90
20946;DHT22;10632;51.276;7.116;2023-02-14T00:37:13;7.00;99.90
20946;DHT22;10632;51.276;7.116;2023-02-14T00:39:40;6.90;99.90
20946;DHT22;10632;51.276;7.116;2023-02-14T00:42:07;6.90;99.90
20946;DHT22;10632;51.276;7.116;2023-02-14T00:44:35;6.90;99.90
20946;DHT22;10632;51.276;7.116;2023-02-14T00:47:02;6.90;99.90
20946;DHT22;10632;51.276;7.116;2023-02-14T00:49:29;6.80;99.90
20946;DHT22;10632;51.276;7.116;2023-02-14T00:51:56;6.70;99.90
20946;DHT22;10632;51.276;7.116;2023-02-14T00:54:23;6.70;99.90
20946;DHT22;10632;51.276;7.116;2023-02-14T00:56:50;6.70;99.90
20946;DHT22;10632;51.276;7.116;2023-02-14T00:59:17;6.70;99.90
20946;DHT22;10632;51.276;7.116;2023-02-14T01:01:45;6.60;99.90
20946;DHT22;10632;51.276;7.116;2023-02-14T01:04:12;6.60;99.90
20946;DHT22;10632;51.276;7.116;2023-02-14T01:06:39;6.50;99.90
20946;DHT22;10632;51.276;7.116;2023-02-14T01:09:05;6.50;99.90
20946;DHT22;10632;51.276;7.116;2023-02-14T01:11:33;6.50;99.90
20946;DHT22;10632;51.276;7.116;2023-02-14T01:13:59;6.50;99.90
20946;DHT22;10632;51.276;7.116;2023-02-14T01:16:27;6.40;99.90
20946;DHT22;10632;51.276;7.116;2023-02-14T01:18:58;6.50;99.90
20946;DHT22;10632;51.276;7.116;2023-02-14T01:21:27;6.50;99.90
20946;DHT22;10632;51.276;7.116;2023-02-14T01:23:57;6.50;99.90
20946;DHT22;10632;51.276;7.116;2023-02-14T01:26:25;6.50;99.90
20946;DHT22;10632;51.276;7.116;2023-02-14T01:28:52;6.50;99.90
20946;DHT22;10632;51.276;7.116;2023-02-14T01:31:24;6.50;99.90
20946;DHT22;10632;51.276;7.116;2023-02-14T01:33:52;6.50;99.90
20946;DHT22;10632;51.276;7.116;2023-02-14T01:36:23;6.50;99.90
20946;DHT22;10632;51.276;7.116;2023-02-14T01:38:51;6.50;99.90
20946;DHT22;10632;51.276;7.116;2023-02-14T01:41:18;6.50;99.90
20946;DHT22;10632;51.276;7.116;2023-02-14T01:43:54;6.50;99.90
20946;DHT22;10632;51.276;7.116;2023-02-14T01:46:21;6.50;99.90
20946;DHT22;10632;51.276;7.116;2023-02-14T01:48:49;6.50;99.90
20946;DHT22;10632;51.276;7.116;2023-02-14T01:51:18;6.50;99.90
20946;DHT22;10632;51.276;7.116;2023-02-14T01:53:47;6.40;99.90
20946;DHT22;10632;51.276;7.116;2023-02-14T01:56:20;6.30;99.90
20946;DHT22;10632;51.276;7.116;2023-02-14T01:58:51;6.30;99.90
20946;DHT22;10632;51.276;7.116;2023-02-14T02:01:20;6.20;99.90
20946;DHT22;10632;51.276;7.116;2023-02-14T02:03:49;6.10;99.90
20946;DHT22;10632;51.276;7.116;2023-02-14T02:06:22;6.10;99.90
20946;DHT22;10632;51.276;7.116;2023-02-14T02:08:58;6.00;99.90
20946;DHT22;10632;51.276;7.116;2023-02-14T02:11:28;6.00;99.90
20946;DHT22;10632;51.276;7.116;2023-02-14T02:13:55;5.90;99.90
20946;DHT22;10632;51.276;7.116;2023-02-14T02:16:35;5.80;99.90
20946;DHT22;10632;51.276;7.116;2023-02-14T02:25:30;5.70;99.90
20946;DHT22;10632;51.276;7.116;2023-02-14T02:28:29;5.70;99.90
20946;DHT22;10632;51.276;7.116;2023-02-14T02:31:18;5.70;99.90
20946;DHT22;10632;51.276;7.116;2023-02-14T02:34:19;5.70;99.90
20946;DHT22;10632;51.276;7.116;2023-02-14T02:36:58;5.70;99.90
20946;DHT22;10632;51.276;7.116;2023-02-14T02:39:42;5.60;99.90
20946;DHT22;10632;51.276;7.116;2023-02-14T02:42:20;5.60;99.90
20946;DHT22;10632;51.276;7.116;2023-02-14T02:44:54;5.60;99.90
20946;DHT22;10632;51.276;7.116;2023-02-14T02:47:26;5.60;99.90
20946;DHT22;10632;51.276;7.116;2023-02-14T02:50:01;5.60;99.90
20946;DHT22;10632;51.276;7.116;2023-02-14T02:52:52;5.60;99.90
20946;DHT22;10632;51.276;7.116;2023-02-14T02:55:39;5.60;99.90
20946;DHT22;10632;51.276;7.116;2023-02-14T02:58:28;5.60;99.90
20946;DHT22;10632;51.276;7.116;2023-02-14T03:00:57;5.50;99.90
20946;DHT22;10632;51.276;7.116;2023-02-14T03:03:26;5.50;99.90
20946;DHT22;10632;51.276;7.116;2023-02-14T03:06:11;5.40;99.90
20946;DHT22;10632;51.276;7.116;2023-02-14T03:08:39;5.40;99.90
20946;DHT22;10632;51.276;7.116;2023-02-14T03:11:06;5.40;99.90
20946;DHT22;10632;51.276;7.116;2023-02-14T03:14:06;5.40;99.90
20946;DHT22;10632;51.276;7.116;2023-02-14T03:16:43;5.30;99.90
20946;DHT22;10632;51.276;7.116;2023-02-14T03:19:32;5.30;99.90
20946;DHT22;10632;51.276;7.116;2023-02-14T03:22:27;5.20;99.90
20946;DHT22;10632;51.276;7.116;2023-02-14T03:25:04;5.20;99.90
20946;DHT22;10632;51.276;7.116;2023-02-14T03:27:38;5.20;99.90
20946;DHT22;10632;51.276;7.116;2023-02-14T03:30:10;5.10;99.90
20946;DHT22;10632;51.276;7.116;2023-02-14T03:32:44;5.10;99.90
20946;DHT22;10632;51.276;7.116;2023-02-14T03:35:19;5.10;99.90
20946;DHT22;10632;51.276;7.116;2023-02-14T03:37:51;5.10;99.90
20946;DHT22;10632;51.276;7.116;2023-02-14T03:40:25;5.00;99.90
20946;DHT22;10632;51.276;7.116;2023-02-14T03:42:56;5.10;99.90
20946;DHT22;10632;51.276;7.116;2023-02-14T03:45:29;5.00;99.90
20946;DHT22;10632;51.276;7.116;2023-02-14T03:48:02;5.00;99.90
20946;DHT22;10632;51.276;7.116;2023-02-14T03:50:31;5.00;99.90
20946;DHT22;10632;51.276;7.116;2023-02-14T03:53:00;5.00;99.90
20946;DHT22;10632;51.276;7.116;2023-02-14T03:55:35;5.00;99.90
20946;DHT22;10632;51.276;7.116;2023-02-14T03:58:09;5.00;99.90
20946;DHT22;10632;51.276;7.116;2023-02-14T04:00:39;4.90;99.90
20946;DHT22;10632;51.276;7.116;2023-02-14T04:03:09;4.80;99.90
20946;DHT22;10632;51.276;7.116;2023-02-14T04:05:37;4.90;99.90
20946;DHT22;10632;51.276;7.116;2023-02-14T04:08:09;4.80;99.90
20946;DHT22;10632;51.276;7.116;2023-02-14T04:10:37;4.80;99.90
20946;DHT22;10632;51.276;7.116;2023-02-14T04:13:07;4.80;99.90
20946;DHT22;10632;51.276;7.116;2023-02-14T04:15:34;4.80;99.90
20946;DHT22;10632;51.276;7.116;2023-02-14T04:18:01;4.80;99.90
20946;DHT22;10632;51.276;7.116;2023-02-14T04:20:46;4.80;99.90
20946;DHT22;10632;51.276;7.116;2023-02-14T04:23:13;4.80;99.90
20946;DHT22;10632;51.276;7.116;2023-02-14T04:25:41;4.90;99.90
20946;DHT22;10632;51.276;7.116;2023-02-14T04:28:10;4.90;99.90
20946;DHT22;10632;51.276;7.116;2023-02-14T04:30:37;4.90;99.90
20946;DHT22;10632;51.276;7.116;2023-02-14T04:33:04;5.00;99.90
20946;DHT22;10632;51.276;7.116;2023-02-14T04:35:32;5.00;99.90
20946;DHT22;10632;51.276;7.116;2023-02-14T04:37:59;5.10;99.90
20946;DHT22;10632;51.276;7.116;2023-02-14T04:40:27;5.10;99.90
20946;DHT22;10632;51.276;7.116;2023-02-14T04:42:55;5.20;99.90
20946;DHT22;10632;51.276;7.116;2023-02-14T04:45:23;5.20;99.90
20946;DHT22;10632;51.276;7.116;2023-02-14T04:47:51;5.20;99.90
20946;DHT22;10632;51.276;7.116;2023-02-14T04:50:18;5.20;99.90
20946;DHT22;10632;51.276;7.116;2023-02-14T04:52:45;5.20;99.90
20946;DHT22;10632;51.276;7.116;2023-02-14T04:55:12;5.30;99.90
20946;DHT22;10632;51.276;7.116;2023-02-14T04:57:39;5.30;99.90
20946;DHT22;10632;51.276;7.116;2023-02-14T05:00:08;5.30;99.90
20946;DHT22;10632;51.276;7.116;2023-02-14T05:02:35;5.30;99.90
20946;DHT22;10632;51.276;7.116;2023-02-14T05:05:02;5.30;99.90
20946;DHT22;10632;51.276;7.116;2023-02-14T05:07:29;5.30;99.90
20946;DHT22;10632;51.276;7.116;2023-02-14T05:09:56;5.30;99.90
20946;DHT22;10632;51.276;7.116;2023-02-14T05:12:23;5.30;99.90
20946;DHT22;10632;51.276;7.116;2023-02-14T05:14:50;5.30;99.90
20946;DHT22;10632;51.276;7.116;2023-02-14T05:17:18;5.20;99.90
20946;DHT22;10632;51.276;7.116;2023-02-14T05:19:45;5.20;99.90
20946;DHT22;10632;51.276;7.116;2023-02-14T05:22:15;5.10;99.90
20946;DHT22;10632;51.276;7.116;2023-02-14T05:24:43;5.10;99.90
20946;DHT22;10632;51.276;7.116;2023-02-14T05:27:09;5.10;99.90
20946;DHT22;10632;51.276;7.116;2023-02-14T05:29:37;5.10;99.90
20946;DHT22;10632;51.276;7.116;2023-02-14T05:32:06;5.10;99.90
20946;DHT22;10632;51.276;7.116;2023-02-14T05:34:35;5.10;99.90
20946;DHT22;10632;51.276;7.116;2023-02-14T05:37:02;5.10;99.90
20946;DHT22;10632;51.276;7.116;2023-02-14T05:39:29;5.20;99.90
20946;DHT22;10632;51.276;7.116;2023-02-14T05:41:56;5.20;99.90
20946;DHT22;10632;51.276;7.116;2023-02-14T05:44:23;5.20;99.90
20946;DHT22;10632;51.276;7.116;2023-02-14T05:46:50;5.20;99.90
20946;DHT22;10632;51.276;7.116;2023-02-14T05:49:17;5.20;99.90
20946;DHT22;10632;51.276;7.116;2023-02-14T05:51:45;5.30;99.90
20946;DHT22;10632;51.276;7.116;2023-02-14T05:54:12;5.30;99.90
20946;DHT22;10632;51.276;7.116;2023-02-14T05:56:39;5.30;99.90
20946;DHT22;10632;51.276;7.116;2023-02-14T05:59:06;5.30;99.90
20946;DHT22;10632;51.276;7.116;2023-02-14T06:01:33;5.30;99.90
20946;DHT22;10632;51.276;7.116;2023-02-14T06:03:59;5.30;99.90
20946;DHT22;10632;51.276;7.116;2023-02-14T06:06:26;5.30;99.90
20946;DHT22;10632;51.276;7.116;2023-02-14T06:08:55;5.40;99.90
20946;DHT22;10632;51.276;7.116;2023-02-14T06:11:21;5.30;99.90
20946;DHT22;10632;51.276;7.116;2023-02-14T06:13:48;5.40;99.90
20946;DHT22;10632;51.276;7.116;2023-02-14T06:16:15;5.40;99.90
20946;DHT22;10632;51.276;7.116;2023-02-14T06:18:43;5.40;99.90
20946;DHT22;10632;51.276;7.116;2023-02-14T06:21:10;5.30;99.90
20946;DHT22;10632;51.276;7.116;2023-02-14T06:23:37;5.30;99.90
20946;DHT22;10632;51.276;7.116;2023-02-14T06:26:05;5.30;99.90
20946;DHT22;10632;51.276;7.116;2023-02-14T06:28:32;5.30;99.90
20946;DHT22;10632;51.276;7.116;2023-02-14T06:30:59;5.20;99.90
20946;DHT22;10632;51.276;7.116;2023-02-14T06:33:26;5.20;99.90
20946;DHT22;10632;51.276;7.116;2023-02-14T06:35:53;5.20;99.90
20946;DHT22;10632;51.276;7.116;2023-02-14T06:38:20;5.20;99.90
20946;DHT22;10632;51.276;7.116;2023-02-14T06:40:47;5.20;99.90
20946;DHT22;10632;51.276;7.116;2023-02-14T06:43:15;5.20;99.90
20946;DHT22;10632;51.276;7.116;2023-02-14T06:45:42;5.20;99.90
20946;DHT22;10632;51.276;7.116;2023-02-14T06:48:09;5.20;99.90
20946;DHT22;10632;51.276;7.116;2023-02-14T06:50:36;5.20;99.90
20946;DHT22;10632;51.276;7.116;2023-02-14T06:53:03;5.20;99.90
20946;DHT22;10632;51.276;7.116;2023-02-14T06:55:30;5.20;99.90
20946;DHT22;10632;51.276;7.116;2023-02-14T06:57:59;5.20;99.90
20946;DHT22;10632;51.276;7.116;2023-02-14T07:00:27;5.10;99.90
20946;DHT22;10632;51.276;7.116;2023-02-14T07:02:55;5.10;99.90
20946;DHT22;10632;51.276;7.116;2023-02-14T07:05:21;5.20;99.90
20946;DHT22;10632;51.276;7.116;2023-02-14T07:07:48;5.20;99.90
20946;DHT22;10632;51.276;7.116;2023-02-14T07:10:15;5.10;99.90
20946;DHT22;10632;51.276;7.116;2023-02-14T07:12:42;5.10;99.90
20946;DHT22;10632;51.276;7.116;2023-02-14T07:15:11;5.20;99.90
20946;DHT22;10632;51.276;7.116;2023-02-14T07:17:39;5.20;99.90
20946;DHT22;10632;51.276;7.116;2023-02-14T07:20:08;5.20;99.90
20946;DHT22;10632;51.276;7.116;2023-02-14T07:22:36;5.20;99.90
20946;DHT22;10632;51.276;7.116;2023-02-14T07:25:03;5.30;99.90
20946;DHT22;10632;51.276;7.116;2023-02-14T07:27:31;5.30;99.90
20946;DHT22;10632;51.276;7.116;2023-02-14T07:30:01;5.30;99.90
20946;DHT22;10632;51.276;7.116;2023-02-14T07:32:29;5.30;99.90
20946;DHT22;10632;51.276;7.116;2023-02-14T07:34:57;5.40;99.90
20946;DHT22;10632;51.276;7.116;2023-02-14T07:37:24;5.40;99.90
20946;DHT22;10632;51.276;7.116;2023-02-14T07:39:51;5.40;99.90
20946;DHT22;10632;51.276;7.116;2023-02-14T07:42:18;5.50;99.90
20946;DHT22;10632;51.276;7.116;2023-02-14T07:44:45;5.50;99.90
20946;DHT22;10632;51.276;7.116;2023-02-14T07:47:11;5.60;99.90
20946;DHT22;10632;51.276;7.116;2023-02-14T07:49:38;5.60;99.90
20946;DHT22;10632;51.276;7.116;2023-02-14T07:52:07;5.70;99.90
20946;DHT22;10632;51.276;7.116;2023-02-14T07:54:34;5.70;99.90
20946;DHT22;10632;51.276;7.116;2023-02-14T07:57:00;5.70;99.90
20946;DHT22;10632;51.276;7.116;2023-02-14T07:59:27;5.80;99.90
20946;DHT22;10632;51.276;7.116;2023-02-14T08:01:54;5.80;99.90
20946;DHT22;10632;51.276;7.116;2023-02-14T08:04:21;5.80;99.90
20946;DHT22;10632;51.276;7.116;2023-02-14T08:06:50;5.90;99.90
20946;DHT22;10632;51.276;7.116;2023-02-14T08:09:19;5.90;99.90
20946;DHT22;10632;51.276;7.116;2023-02-14T08:11:50;5.90;99.90
20946;DHT22;10632;51.276;7.116;2023-02-14T08:14:34;6.00;99.90
20946;DHT22;10632;51.276;7.116;2023-02-14T08:17:01;6.00;99.90
20946;DHT22;10632;51.276;7.116;2023-02-14T08:19:28;6.10;99.90
20946;DHT22;10632;51.276;7.116;2023-02-14T08:21:55;6.10;99.90
20946;DHT22;10632;51.276;7.116;2023-02-14T08:24:24;6.20;99.90
20946;DHT22;10632;51.276;7.116;2023-02-14T08:26:50;6.20;99.90
20946;DHT22;10632;51.276;7.116;2023-02-14T08:29:20;6.30;99.90
20946;DHT22;10632;51.276;7.116;2023-02-14T08:31:50;6.30;99.90
20946;DHT22;10632;51.276;7.116;2023-02-14T08:34:20;6.30;99.90
20946;DHT22;10632;51.276;7.116;2023-02-14T08:36:47;6.40;99.90
20946;DHT22;10632;51.276;7.116;2023-02-14T08:39:14;6.40;99.90
20946;DHT22;10632;51.276;7.116;2023-02-14T08:41:42;6.50;99.90
20946;DHT22;10632;51.276;7.116;2023-02-14T08:44:09;6.50;99.90
20946;DHT22;10632;51.276;7.116;2023-02-14T08:46:36;6.60;99.90
20946;DHT22;10632;51.276;7.116;2023-02-14T08:49:04;6.70;99.90
20946;DHT22;10632;51.276;7.116;2023-02-14T08:51:32;6.70;99.90
20946;DHT22;10632;51.276;7.116;2023-02-14T08:53:59;6.80;99.90
20946;DHT22;10632;51.276;7.116;2023-02-14T08:56:26;6.90;99.90
20946;DHT22;10632;51.276;7.116;2023-02-14T08:58:54;6.90;99.90
20946;DHT22;10632;51.276;7.116;2023-02-14T09:01:21;7.00;99.90
20946;DHT22;10632;51.276;7.116;2023-02-14T09:03:48;7.10;99.90
20946;DHT22;10632;51.276;7.116;2023-02-14T09:06:16;7.20;99.90
20946;DHT22;10632;51.276;7.116;2023-02-14T09:08:43;7.30;99.90
20946;DHT22;10632;51.276;7.116;2023-02-14T09:11:14;7.40;99.90
20946;DHT22;10632;51.276;7.116;2023-02-14T09:13:43;7.50;99.90
20946;DHT22;10632;51.276;7.116;2023-02-14T09:16:13;7.60;99.90
20946;DHT22;10632;51.276;7.116;2023-02-14T09:18:42;7.70;99.90
20946;DHT22;10632;51.276;7.116;2023-02-14T09:21:11;7.80;99.90
20946;DHT22;10632;51.276;7.116;2023-02-14T09:23:39;7.90;99.90
20946;DHT22;10632;51.276;7.116;2023-02-14T09:26:08;8.00;99.90
20946;DHT22;10632;51.276;7.116;2023-02-14T09:28:35;8.10;99.90
20946;DHT22;10632;51.276;7.116;2023-02-14T09:31:07;8.20;99.90
20946;DHT22;10632;51.276;7.116;2023-02-14T09:33:36;8.40;99.90
20946;DHT22;10632;51.276;7.116;2023-02-14T09:36:04;8.40;99.90
20946;DHT22;10632;51.276;7.116;2023-02-14T09:38:48;8.50;99.90
20946;DHT22;10632;51.276;7.116;2023-02-14T09:41:39;8.60;99.90
20946;DHT22;10632;51.276;7.116;2023-02-14T09:44:16;8.70;99.90
20946;DHT22;10632;51.276;7.116;2023-02-14T09:46:51;8.80;99.90
20946;DHT22;10632;51.276;7.116;2023-02-14T09:49:29;8.90;99.90
20946;DHT22;10632;51.276;7.116;2023-02-14T09:51:58;9.00;99.90
20946;DHT22;10632;51.276;7.116;2023-02-14T09:54:29;9.10;99.90
20946;DHT22;10632;51.276;7.116;2023-02-14T09:57:01;9.10;99.90
20946;DHT22;10632;51.276;7.116;2023-02-14T09:59:34;9.20;99.90
20946;DHT22;10632;51.276;7.116;2023-02-14T10:02:17;9.30;99.90
20946;DHT22;10632;51.276;7.116;2023-02-14T10:04:56;9.40;99.90
20946;DHT22;10632;51.276;7.116;2023-02-14T10:07:27;9.40;99.90
20946;DHT22;10632;51.276;7.116;2023-02-14T10:10:02;9.50;99.90
20946;DHT22;10632;51.276;7.116;2023-02-14T10:12:35;9.70;99.90
20946;DHT22;10632;51.276;7.116;2023-02-14T10:15:11;9.70;99.90
20946;DHT22;10632;51.276;7.116;2023-02-14T10:17:47;9.80;99.90
20946;DHT22;10632;51.276;7.116;2023-02-14T10:20:24;9.90;99.90
20946;DHT22;10632;51.276;7.116;2023-02-14T10:22:59;10.00;99.90
20946;DHT22;10632;51.276;7.116;2023-02-14T10:25:29;10.10;99.90
20946;DHT22;10632;51.276;7.116;2023-02-14T10:28:00;10.10;99.90
20946;DHT22;10632;51.276;7.116;2023-02-14T10:30:35;10.20;99.90
20946;DHT22;10632;51.276;7.116;2023-02-14T10:33:09;10.20;99.90
20946;DHT22;10632;51.276;7.116;2023-02-14T10:35:46;10.30;99.90
20946;DHT22;10632;51.276;7.116;2023-02-14T10:38:26;10.30;99.90
20946;DHT22;10632;51.276;7.116;2023-02-14T10:41:16;10.40;99.90
20946;DHT22;10632;51.276;7.116;2023-02-14T10:43:54;10.60;99.90
20946;DHT22;10632;51.276;7.116;2023-02-14T10:46:33;10.60;99.90
20946;DHT22;10632;51.276;7.116;2023-02-14T10:49:12;10.80;99.90
20946;DHT22;10632;51.276;7.116;2023-02-14T10:51:52;10.90;99.90
20946;DHT22;10632;51.276;7.116;2023-02-14T10:54:23;11.00;99.90
20946;DHT22;10632;51.276;7.116;2023-02-14T10:56:54;10.90;99.90
20946;DHT22;10632;51.276;7.116;2023-02-14T10:59:26;10.80;99.90
20946;DHT22;10632;51.276;7.116;2023-02-14T11:01:55;10.80;99.90
20946;DHT22;10632;51.276;7.116;2023-02-14T11:04:23;10.70;99.90
20946;DHT22;10632;51.276;7.116;2023-02-14T11:06:52;10.70;99.90
20946;DHT22;10632;51.276;7.116;2023-02-14T11:09:19;10.70;99.90
20946;DHT22;10632;51.276;7.116;2023-02-14T11:11:49;10.70;99.90
20946;DHT22;10632;51.276;7.116;2023-02-14T11:14:22;10.80;99.90
20946;DHT22;10632;51.276;7.116;2023-02-14T11:16:51;10.70;99.90
20946;DHT22;10632;51.276;7.116;2023-02-14T11:19:24;10.70;99.90
20946;DHT22;10632;51.276;7.116;2023-02-14T11:21:54;10.70;99.90
20946;DHT22;10632;51.276;7.116;2023-02-14T11:24:31;10.70;99.90
20946;DHT22;10632;51.276;7.116;2023-02-14T11:27:02;10.80;99.90
20946;DHT22;10632;51.276;7.116;2023-02-14T11:29:32;10.90;99.90
20946;DHT22;10632;51.276;7.116;2023-02-14T11:32:07;11.00;99.90
20946;DHT22;10632;51.276;7.116;2023-02-14T11:34:36;11.10;99.90
20946;DHT22;10632;51.276;7.116;2023-02-14T11:37:18;11.20;99.90
20946;DHT22;10632;51.276;7.116;2023-02-14T11:39:54;11.20;99.90
20946;DHT22;10632;51.276;7.116;2023-02-14T11:42:42;11.30;99.90
20946;DHT22;10632;51.276;7.116;2023-02-14T11:45:27;11.50;99.90
20946;DHT22;10632;51.276;7.116;2023-02-14T11:48:16;11.60;99.90
20946;DHT22;10632;51.276;7.116;2023-02-14T11:50:53;12.00;99.90
20946;DHT22;10632;51.276;7.116;2023-02-14T11:53:24;12.40;99.90
20946;DHT22;10632;51.276;7.116;2023-02-14T11:55:53;12.90;99.90
20946;DHT22;10632;51.276;7.116;2023-02-14T11:58:32;13.30;99.90
20946;DHT22;10632;51.276;7.116;2023-02-14T12:01:00;13.70;99.90
20946;DHT22;10632;51.276;7.116;2023-02-14T12:03:28;13.60;99.90
20946;DHT22;10632;51.276;7.116;2023-02-14T12:05:59;13.30;99.90
20946;DHT22;10632;51.276;7.116;2023-02-14T12:08:30;13.00;99.90
20946;DHT22;10632;51.276;7.116;2023-02-14T12:11:01;12.70;99.90
20946;DHT22;10632;51.276;7.116;2023-02-14T12:13:28;12.60;99.90
20946;DHT22;10632;51.276;7.116;2023-02-14T12:15:56;12.50;99.90
20946;DHT22;10632;51.276;7.116;2023-02-14T12:18:44;12.80;99.90
20946;DHT22;10632;51.276;7.116;2023-02-14T12:21:24;13.30;99.90
20946;DHT22;10632;51.276;7.116;2023-02-14T12:23:59;13.90;99.90
20946;DHT22;10632;51.276;7.116;2023-02-14T12:26:32;14.50;99.90
20946;DHT22;10632;51.276;7.116;2023-02-14T12:29:05;15.10;99.90
20946;DHT22;10632;51.276;7.116;2023-02-14T12:31:35;15.40;99.90
20946;DHT22;10632;51.276;7.116;2023-02-14T12:34:02;15.20;99.90
20946;DHT22;10632;51.276;7.116;2023-02-14T12:36:43;14.70;99.90
20946;DHT22;10632;51.276;7.116;2023-02-14T12:39:22;14.30;99.90
20946;DHT22;10632;51.276;7.116;2023-02-14T12:41:59;14.10;99.90
20946;DHT22;10632;51.276;7.116;2023-02-14T12:44:36;14.70;99.90
20946;DHT22;10632;51.276;7.116;2023-02-14T12:47:18;15.50;99.90
20946;DHT22;10632;51.276;7.116;2023-02-14T12:50:19;16.40;99.90
20946;DHT22;10632;51.276;7.116;2023-02-14T12:52:59;16.90;98.20
20946;DHT22;10632;51.276;7.116;2023-02-14T12:55:47;17.10;98.00
20946;DHT22;10632;51.276;7.116;2023-02-14T12:58:26;17.50;97.30
20946;DHT22;10632;51.276;7.116;2023-02-14T13:01:04;17.70;95.80
20946;DHT22;10632;51.276;7.116;2023-02-14T13:04:05;17.70;95.50
20946;DHT22;10632;51.276;7.116;2023-02-14T13:06:40;17.90;96.10
20946;DHT22;10632;51.276;7.116;2023-02-14T13:09:19;18.10;95.60
20946;DHT22;10632;51.276;7.116;2023-02-14T13:11:58;18.30;94.80
20946;DHT22;10632;51.276;7.116;2023-02-14T13:14:38;18.50;94.40
20946;DHT22;10632;51.276;7.116;2023-02-14T13:17:12;18.80;93.20
20946;DHT22;10632;51.276;7.116;2023-02-14T13:19:50;18.80;93.50
20946;DHT22;10632;51.276;7.116;2023-02-14T13:22:23;19.10;92.80
20946;DHT22;10632;51.276;7.116;2023-02-14T13:24:55;19.00;92.50
20946;DHT22;10632;51.276;7.116;2023-02-14T13:27:27;18.80;92.50
20946;DHT22;10632;51.276;7.116;2023-02-14T13:29:58;19.00;92.80
20946;DHT22;10632;51.276;7.116;2023-02-14T13:32:30;19.40;92.80
20946;DHT22;10632;51.276;7.116;2023-02-14T13:34:58;19.80;91.30
20946;DHT22;10632;51.276;7.116;2023-02-14T13:37:27;19.90;91.50
20946;DHT22;10632;51.276;7.116;2023-02-14T13:39:57;20.10;91.60
20946;DHT22;10632;51.276;7.116;2023-02-14T13:42:52;20.20;90.50
20946;DHT22;10632;51.276;7.116;2023-02-14T13:45:52;20.20;90.30
20946;DHT22;10632;51.276;7.116;2023-02-14T13:48:21;20.10;90.50
20946;DHT22;10632;51.276;7.116;2023-02-14T13:50:51;19.90;89.50
20946;DHT22;10632;51.276;7.116;2023-02-14T13:53:31;19.70;91.00
20946;DHT22;10632;51.276;7.116;2023-02-14T13:55:59;19.70;90.70
20946;DHT22;10632;51.276;7.116;2023-02-14T13:58:28;19.70;90.90
20946;DHT22;10632;51.276;7.116;2023-02-14T14:00:55;19.70;90.70
20946;DHT22;10632;51.276;7.116;2023-02-14T14:03:53;19.60;91.30
20946;DHT22;10632;51.276;7.116;2023-02-14T14:06:20;19.20;89.90
20946;DHT22;10632;51.276;7.116;2023-02-14T14:08:49;18.40;91.50
20946;DHT22;10632;51.276;7.116;2023-02-14T14:14:32;17.10;92.90
20946;DHT22;10632;51.276;7.116;2023-02-14T14:17:02;16.50;92.90
20946;DHT22;10632;51.276;7.116;2023-02-14T14:19:38;16.10;94.40
20946;DHT22;10632;51.276;7.116;2023-02-14T14:22:07;15.70;94.40
20946;DHT22;10632;51.276;7.116;2023-02-14T14:24:36;15.50;95.20
20946;DHT22;10632;51.276;7.116;2023-02-14T14:27:05;15.30;95.00
20946;DHT22;10632;51.276;7.116;2023-02-14T14:29:44;15.00;95.50
20946;DHT22;10632;51.276;7.116;2023-02-14T14:32:16;14.80;95.80
20946;DHT22;10632;51.276;7.116;2023-02-14T14:34:48;14.50;96.20
20946;DHT22;10632;51.276;7.116;2023-02-14T14:37:17;14.40;96.80
20946;DHT22;10632;51.276;7.116;2023-02-14T14:39:50;14.30;96.90
20946;DHT22;10632;51.276;7.116;2023-02-14T14:42:18;14.30;97.00
20946;DHT22;10632;51.276;7.116;2023-02-14T14:44:49;14.20;97.10
20946;DHT22;10632;51.276;7.116;2023-02-14T14:47:19;14.10;96.30
20946;DHT22;10632;51.276;7.116;2023-02-14T14:49:47;14.00;96.70
20946;DHT22;10632;51.276;7.116;2023-02-14T14:52:30;13.90;97.00
20946;DHT22;10632;51.276;7.116;2023-02-14T14:55:00;13.90;97.50
20946;DHT22;10632;51.276;7.116;2023-02-14T14:57:28;13.80;97.30
20946;DHT22;10632;51.276;7.116;2023-02-14T15:00:20;13.70;97.60
20946;DHT22;10632;51.276;7.116;2023-02-14T15:03:00;13.60;98.10
20946;DHT22;10632;51.276;7.116;2023-02-14T15:05:29;13.60;97.80
20946;DHT22;10632;51.276;7.116;2023-02-14T15:07:57;13.60;98.00
20946;DHT22;10632;51.276;7.116;2023-02-14T15:10:38;13.60;98.00
20946;DHT22;10632;51.276;7.116;2023-02-14T15:13:10;13.60;98.10
20946;DHT22;10632;51.276;7.116;2023-02-14T15:15:57;13.60;98.30
20946;DHT22;10632;51.276;7.116;2023-02-14T15:18:25;13.50;98.40
20946;DHT22;10632;51.276;7.116;2023-02-14T15:20:52;13.50;98.40
20946;DHT22;10632;51.276;7.116;2023-02-14T15:23:21;13.40;98.50
20946;DHT22;10632;51.276;7.116;2023-02-14T15:25:52;13.40;98.70
20946;DHT22;10632;51.276;7.116;2023-02-14T15:28:33;13.30;98.90
20946;DHT22;10632;51.276;7.116;2023-02-14T15:31:03;13.30;98.60
20946;DHT22;10632;51.276;7.116;2023-02-14T15:33:32;13.40;98.60
20946;DHT22;10632;51.276;7.116;2023-02-14T15:36:02;13.30;98.70
20946;DHT22;10632;51.276;7.116;2023-02-14T15:38:30;13.30;98.90
20946;DHT22;10632;51.276;7.116;2023-02-14T15:40:59;13.20;99.20
20946;DHT22;10632;51.276;7.116;2023-02-14T15:43:29;13.20;99.20
20946;DHT22;10632;51.276;7.116;2023-02-14T15:45:59;13.10;99.40
20946;DHT22;10632;51.276;7.116;2023-02-14T15:48:40;13.10;99.80
20946;DHT22;10632;51.276;7.116;2023-02-14T15:51:16;13.00;99.90
20946;DHT22;10632;51.276;7.116;2023-02-14T15:53:49;13.10;99.90
20946;DHT22;10632;51.276;7.116;2023-02-14T15:56:19;13.00;99.90
20946;DHT22;10632;51.276;7.116;2023-02-14T15:58:58;12.90;99.90
20946;DHT22;10632;51.276;7.116;2023-02-14T16:01:26;12.90;99.90
20946;DHT22;10632;51.276;7.116;2023-02-14T16:03:57;12.90;99.90
20946;DHT22;10632;51.276;7.116;2023-02-14T16:06:37;12.90;99.90
20946;DHT22;10632;51.276;7.116;2023-02-14T16:09:20;12.80;99.90
20946;DHT22;10632;51.276;7.116;2023-02-14T16:11:48;12.70;99.90
20946;DHT22;10632;51.276;7.116;2023-02-14T16:14:32;12.70;99.90
20946;DHT22;10632;51.276;7.116;2023-02-14T16:17:02;12.70;99.90